Time;durP1;ratioP1;P1;durP2;ratioP2;P2;SDS_P1;SDS_P2;PMS_P1;PMS_P2;Temp;Humidity;BMP_temperature;BMP_pressure;BME280_temperature;BME280_humidity;BME280_pressure;Samples;Min_cycle;Max_cycle;Signal;HPM_P1;HPM_P2
2023/04/26 17:16:48;;;;;;;8.60;3.40;;;19.30;48.60;;;;;;6367168;27;20473;-76
2023/04/26 17:19:50;;;;;;;7.93;3.03;;;18.50;51.90;;;;;;6341375;28;20047;-75
2023/04/26 17:22:52;;;;;;;7.38;3.10;;;19.00;50.90;;;;;;6347791;27;20036;-75
2023/04/26 17:25:54;;;;;;;9.90;3.28;;;19.40;49.90;;;;;;6365878;28;20051;-76
2023/04/26 17:28:56;;;;;;;6.68;3.40;;;18.70;49.80;;;;;;6347477;28;20135;-75
2023/04/26 17:31:59;;;;;;;7.47;3.10;;;18.40;51.30;;;;;;6342007;28;20044;-75
2023/04/26 17:35:01;;;;;;;6.90;3.63;;;18.40;51.70;;;;;;6342079;28;20405;-75
2023/04/26 17:38:02;;;;;;;7.85;3.38;;;18.20;52.00;;;;;;6341162;28;20393;-77
2023/04/26 17:41:05;;;;;;;7.00;2.65;;;18.10;53.50;;;;;;6341196;28;20047;-77
2023/04/26 17:44:06;;;;;;;7.70;3.10;;;17.70;52.80;;;;;;6342383;28;20476;-77
2023/04/26 17:47:10;;;;;;;9.40;3.20;;;17.20;53.80;;;;;;6346846;28;20044;-76
2023/04/26 17:50:12;;;;;;;7.13;3.05;;;16.80;54.90;;;;;;6346444;28;20032;-78
2023/04/26 17:53:14;;;;;;;9.52;3.30;;;16.70;54.90;;;;;;6359140;27;20138;-76
2023/04/26 17:56:16;;;;;;;9.10;3.30;;;16.40;55.30;;;;;;6358554;28;20070;-75
2023/04/26 17:59:17;;;;;;;7.68;3.55;;;16.00;55.60;;;;;;6355687;28;20469;-76
2023/04/26 18:02:20;;;;;;;6.53;3.10;;;16.00;56.00;;;;;;6353093;27;20047;-76
2023/04/26 18:05:23;;;;;;;6.13;3.00;;;15.90;56.00;;;;;;6340969;28;20599;-77
2023/04/26 18:08:25;;;;;;;5.93;2.83;;;15.90;56.00;;;;;;6340198;28;20051;-76
2023/04/26 18:11:27;;;;;;;7.80;2.83;;;15.70;56.90;;;;;;6342472;28;20059;-77
2023/04/26 18:14:29;;;;;;;6.93;2.92;;;15.60;56.80;;;;;;6343866;27;20044;-77
2023/04/26 18:17:32;;;;;;;6.57;3.00;;;15.60;56.90;;;;;;6346226;28;20040;-76
2023/04/26 18:20:35;;;;;;;8.98;3.40;;;15.60;56.70;;;;;;6321517;28;20052;-76
2023/04/26 18:23:37;;;;;;;7.03;2.88;;;15.50;58.20;;;;;;6342353;27;20043;-76
2023/04/26 18:26:40;;;;;;;7.25;3.05;;;15.30;58.60;;;;;;6338888;27;20051;-75
2023/04/26 18:29:42;;;;;;;8.93;3.15;;;15.30;58.40;;;;;;6334556;28;20040;-77
2023/04/26 18:32:46;;;;;;;6.15;3.05;;;15.10;58.60;;;;;;6331381;28;20055;-78
2023/04/26 18:35:49;;;;;;;7.78;2.80;;;15.00;59.60;;;;;;6323411;28;20180;-76
2023/04/26 18:38:51;;;;;;;;;;;15.00;59.70;;;;;;6349301;28;20143;-75
2023/04/26 18:41:53;;;;;;;7.40;3.25;;;14.60;60.60;;;;;;6351203;28;19924;-78
2023/04/26 18:44:55;;;;;;;9.13;3.42;;;14.70;60.90;;;;;;6347538;28;20047;-78
2023/04/26 18:47:58;;;;;;;10.07;3.15;;;14.60;61.70;;;;;;6324499;28;20048;-75
2023/04/26 18:51:00;;;;;;;7.15;3.33;;;14.60;61.40;;;;;;6327076;28;20394;-76
2023/04/26 18:54:02;;;;;;;6.78;2.90;;;14.40;61.90;;;;;;6332495;28;20048;-75
2023/04/26 18:57:04;;;;;;;6.93;3.15;;;14.40;62.10;;;;;;6333368;28;20408;-74
2023/04/26 19:00:08;;;;;;;6.28;3.13;;;14.00;62.00;;;;;;6334552;28;20056;-75
2023/04/26 19:03:11;;;;;;;;;;;14.10;62.10;;;;;;6347483;28;20043;-76
2023/04/26 19:06:14;;;;;;;;;;;14.20;62.30;;;;;;6323775;28;19927;-75
2023/04/26 19:09:16;;;;;;;7.45;2.80;;;14.10;62.80;;;;;;6321858;28;19930;-76
2023/04/26 19:12:18;;;;;;;7.88;2.95;;;14.10;63.20;;;;;;6342635;28;20044;-77
2023/04/26 19:15:20;;;;;;;8.35;2.88;;;13.90;63.30;;;;;;6318793;28;20051;-75
2023/04/26 19:18:23;;;;;;;7.38;3.03;;;13.90;63.60;;;;;;6326740;28;20045;-75
2023/04/26 19:21:25;;;;;;;7.13;2.67;;;13.80;63.10;;;;;;6299013;28;20051;-77
2023/04/26 19:24:27;;;;;;;8.05;3.00;;;13.80;65.80;;;;;;6346153;28;20079;-76
2023/04/26 19:27:29;;;;;;;6.22;2.80;;;13.50;66.00;;;;;;6348400;28;20749;-78
2023/04/26 19:30:31;;;;;;;7.47;3.22;;;13.70;65.50;;;;;;6343706;28;20055;-77
2023/04/26 19:33:35;;;;;;;6.47;2.95;;;13.50;66.60;;;;;;6326829;28;20044;-78
2023/04/26 19:36:37;;;;;;;6.50;2.65;;;13.60;67.30;;;;;;6334303;28;20055;-76
2023/04/26 19:39:39;;;;;;;10.27;2.80;;;13.80;66.70;;;;;;6346708;28;20044;-76
2023/04/26 19:42:41;;;;;;;6.85;2.47;;;13.90;68.00;;;;;;6335057;28;20394;-76
2023/04/26 19:45:43;;;;;;;8.82;3.08;;;13.90;68.90;;;;;;6302438;28;20052;-77
2023/04/26 19:48:46;;;;;;;5.20;2.33;;;13.80;70.20;;;;;;6341985;28;20048;-78
2023/04/26 19:51:48;;;;;;;6.50;2.88;;;13.70;72.30;;;;;;6341529;28;20047;-77
2023/04/26 19:54:53;;;;;;;6.88;2.45;;;13.70;72.30;;;;;;6301423;28;20486;-78
2023/04/26 19:57:55;;;;;;;7.53;2.42;;;13.70;72.70;;;;;;6340726;28;20404;-77
2023/04/26 20:00:57;;;;;;;7.67;2.50;;;13.70;73.30;;;;;;6337773;28;20044;-78
2023/04/26 20:04:01;;;;;;;6.43;2.42;;;13.80;74.40;;;;;;6326935;28;20078;-78
2023/04/26 20:07:03;;;;;;;7.53;2.50;;;13.70;74.20;;;;;;6337541;28;20048;-77
2023/04/26 20:10:07;;;;;;;6.57;2.70;;;13.70;73.70;;;;;;6350486;28;20097;-79
2023/04/26 20:13:09;;;;;;;6.30;2.67;;;13.60;73.00;;;;;;6353836;28;20047;-78
2023/04/26 20:16:14;;;;;;;6.57;2.40;;;13.50;73.50;;;;;;6340135;28;20060;-75
2023/04/26 20:19:17;;;;;;;8.13;2.95;;;13.40;74.00;;;;;;6301428;28;20401;-75
2023/04/26 20:22:19;;;;;;;6.13;2.80;;;13.20;74.90;;;;;;6326233;28;20513;-76
2023/04/26 20:25:21;;;;;;;6.68;2.58;;;13.20;74.20;;;;;;6322697;28;20048;-77
2023/04/26 20:28:24;;;;;;;6.03;2.65;;;13.20;73.80;;;;;;6344742;28;20054;-77
2023/04/26 20:31:26;;;;;;;5.90;2.50;;;13.20;74.10;;;;;;6348848;28;20051;-75
2023/04/26 20:34:30;;;;;;;7.97;2.80;;;13.30;74.60;;;;;;6348680;28;20304;-78
2023/04/26 20:37:32;;;;;;;4.93;2.45;;;13.20;74.60;;;;;;6342702;28;20134;-78
2023/04/26 20:40:34;;;;;;;5.10;2.60;;;13.30;75.20;;;;;;6326955;28;20059;-76
2023/04/26 20:43:35;;;;;;;6.63;2.63;;;13.30;75.60;;;;;;6322039;28;20049;-78
2023/04/26 20:46:37;;;;;;;7.45;2.95;;;13.30;75.00;;;;;;6312205;28;20047;-75
2023/04/26 20:49:41;;;;;;;5.68;2.70;;;13.20;74.70;;;;;;6300928;28;20063;-77
2023/04/26 20:52:45;;;;;;;6.43;2.97;;;13.20;75.20;;;;;;6306553;28;20055;-77
2023/04/26 20:55:47;;;;;;;5.40;2.50;;;13.00;75.40;;;;;;6329166;28;20134;-77
2023/04/26 20:58:48;;;;;;;8.10;2.78;;;13.10;75.50;;;;;;6345967;28;20058;-76
2023/04/26 21:01:50;;;;;;;5.28;2.70;;;13.10;76.10;;;;;;6347117;28;20047;-75
2023/04/26 21:04:54;;;;;;;8.95;2.80;;;13.10;77.40;;;;;;6343840;28;20485;-76
2023/04/26 21:07:56;;;;;;;6.95;2.50;;;13.10;77.80;;;;;;6348154;28;20051;-78
2023/04/26 21:10:57;;;;;;;5.53;2.80;;;13.00;78.10;;;;;;6352927;28;20044;-77
2023/04/26 21:13:59;;;;;;;6.63;3.17;;;12.90;77.90;;;;;;6354943;28;20073;-78
2023/04/26 21:17:04;;;;;;;7.38;2.63;;;12.90;77.70;;;;;;6357557;28;20047;-78
2023/04/26 21:20:08;;;;;;;7.93;3.10;;;12.80;78.10;;;;;;6356502;28;20050;-77
2023/04/26 21:23:10;;;;;;;6.75;3.22;;;12.70;78.80;;;;;;6357763;28;20086;-76
2023/04/26 21:26:12;;;;;;;6.22;2.60;;;12.70;79.20;;;;;;6357400;28;20058;-77
2023/04/26 21:29:14;;;;;;;8.27;2.65;;;12.70;79.30;;;;;;6346513;28;20047;-75
2023/04/26 21:32:16;;;;;;;8.43;3.13;;;12.60;79.20;;;;;;6346775;28;20360;-76
2023/04/26 21:35:19;;;;;;;6.03;2.65;;;12.60;79.60;;;;;;6336181;28;20044;-74
2023/04/26 21:38:21;;;;;;;8.57;2.60;;;12.50;79.50;;;;;;6317973;28;20396;-76
2023/04/26 21:41:24;;;;;;;5.85;2.55;;;12.40;79.50;;;;;;6336948;28;20048;-75
2023/04/26 21:44:26;;;;;;;7.85;3.08;;;12.40;81.00;;;;;;6344370;28;20040;-75
2023/04/26 21:47:28;;;;;;;4.85;2.60;;;12.40;81.60;;;;;;6346324;28;20051;-76
2023/04/26 21:50:31;;;;;;;6.00;2.50;;;12.30;81.30;;;;;;6347933;28;20055;-76
2023/04/26 21:53:33;;;;;;;6.32;2.53;;;12.30;82.10;;;;;;6348341;28;20046;-77
2023/04/26 21:56:35;;;;;;;7.15;2.92;;;12.20;81.20;;;;;;6343310;28;20050;-75
2023/04/26 21:59:40;;;;;;;6.20;2.95;;;12.20;82.80;;;;;;6299304;28;20045;-74
